This is the latest recevied weather packets stored in our database for station/object DM3FAM-10. If no packets are shown the sender has not sent any weather packets the latest 10 day(s).
| Time | Temp. | Humidity | Pressure | Rain* | Wind** | Luminosity | Snow |
|---|---|---|---|---|---|---|---|
| 1777508790 | 6.11° C | 61% | 972.1 hPa | - | - | - | - |
| 1777507889 | 6.67° C | 64% | 972.1 hPa | - | - | - | - |
| 1777506989 | 7.22° C | 58% | 972 hPa | - | - | - | - |
| 1777506089 | 6.67° C | 61% | 972.2 hPa | - | - | - | - |
| 1777505189 | 7.22° C | 59% | 972.1 hPa | - | - | - | - |
| 1777504289 | 7.78° C | 58% | 972.1 hPa | - | - | - | - |
| 1777503389 | 8.33° C | 52% | 972.2 hPa | - | - | - | - |
| 1777502489 | 9.44° C | 45% | 972 hPa | - | - | - | - |
| 1777501589 | 9.44° C | 48% | 972.1 hPa | - | - | - | - |
| 1777500689 | 9.44° C | 47% | 972 hPa | - | - | - | - |
| 1777499789 | 10.56° C | 43% | 971.9 hPa | - | - | - | - |
| 1777498889 | 10.56° C | 45% | 971.9 hPa | - | - | - | - |
| 1777497989 | 10.56° C | 47% | 971.8 hPa | - | - | - | - |
| 1777497089 | 10.56° C | 46% | 971.8 hPa | - | - | - | - |
| 1777496189 | 11.11° C | 48% | 971.6 hPa | - | - | - | - |
| 1777495289 | 11.11° C | 50% | 971.7 hPa | - | - | - | - |
| 1777494389 | 11.67° C | 49% | 971.4 hPa | - | - | - | - |
| 1777493489 | 10° C | 65% | 971.3 hPa | - | - | - | - |
| 1777492588 | 9.44° C | 71% | 971.1 hPa | - | - | - | - |
| 1777491688 | 11.11° C | 61% | 970.9 hPa | - | - | - | - |
| 1777490788 | 11.67° C | 59% | 970.8 hPa | - | - | - | - |
| 1777489888 | 12.22° C | 55% | 970.8 hPa | - | - | - | - |
| 1777488988 | 13.89° C | 46% | 970.5 hPa | - | - | - | - |
| 1777488088 | 15° C | 40% | 970.3 hPa | - | - | - | - |
| 1777487188 | 14.44° C | 43% | 970.1 hPa | - | - | - | - |
* Rain since midnight (hover to see other rain measurements)
** Current wind speed in m/s (hover to see current wind gust speed)